ADDS METAR Data INFO
IDs: Format: Raw Decoded Include TAF

Data at: 0313 UTC 20 Jul 2018

KUTA 200255Z AUTO 17005KT 10SM 27/21 A2988 RMK AO2 TSNO
KUTA 200235Z AUTO 17010G15KT 10SM 27/21 A2987 RMK AO2 TSNO
KUTA 200215Z AUTO 16009G14KT 10SM 28/22 A2986 RMK AO2 TSNO
KUTA 200155Z AUTO 00000KT 10SM 30/26 A2986 RMK AO2 TSNO
KUTA 200135Z AUTO 13005KT 10SM 29/26 A2985 RMK AO2 TSNO
KUTA 200115Z AUTO 00000KT 10SM 30/26 A2985 RMK AO2 TSNO
KUTA 200055Z AUTO 17003KT 10SM 31/26 A2984 RMK AO2 TSNO
KUTA 200035Z AUTO 17004KT 10SM 31/26 A2983 RMK AO2 TSNO
KUTA 200015Z AUTO 17005KT 10SM 32/26 A2983 RMK AO2 TSNO
KUTA 192355Z AUTO 17005KT 10SM 33/25 A2984 RMK AO2 TSNO
KUTA 192335Z AUTO 18006KT 10SM 33/25 A2984 RMK AO2 TSNO
KUTA 192315Z AUTO 19006KT 10SM 33/25 A2985 RMK AO2 TSNO
KUTA 192255Z AUTO 20007KT 10SM 33/25 A2985 RMK AO2 TSNO
KUTA 192235Z AUTO 21006KT 10SM 34/25 A2985 RMK AO2 TSNO
KUTA 192215Z AUTO 22006KT 10SM 34/24 A2986 RMK AO2 TSNO
KUTA 192155Z AUTO 22007KT 10SM 33/24 A2986 RMK AO2 TSNO
KUTA 192135Z AUTO 20007KT 10SM 34/23 A2986 RMK AO2 TSNO
KUTA 192115Z AUTO 21009KT 10SM 33/23 A2986 RMK AO2 TSNO
KUTA 192055Z AUTO 22008KT 10SM 34/23 A2986 RMK AO2 TSNO
KUTA 192035Z AUTO 22007KT 10SM 35/23 A2987 RMK AO2 TSNO
KUTA 192015Z AUTO 20007KT 10SM 35/23 A2988 RMK AO2 TSNO
KUTA 191955Z AUTO 18005KT 10SM 34/23 A2988 RMK AO2 TSNO
KUTA 191935Z AUTO 18007KT 10SM 34/23 A2989 RMK AO2 TSNO
KUTA 191915Z AUTO 19005KT 10SM 34/23 A2989 RMK AO2 TSNO
KUTA 191855Z AUTO 18006KT 10SM 33/24 A2990 RMK AO2 TSNO
KUTA 191835Z AUTO 17005KT 10SM 33/24 A2990 RMK AO2 TSNO
KUTA 191815Z AUTO 20003KT 10SM 33/23 A2991 RMK AO2 TSNO
KUTA 191755Z AUTO 19004KT 10SM 32/24 A2991 RMK AO2 TSNO
KUTA 191735Z AUTO 14006KT 10SM 32/25 A2991 RMK AO2 TSNO
KUTA 191715Z AUTO 18005KT 10SM 32/25 A2992 RMK AO2 TSNO
KUTA 191655Z AUTO 19005KT 10SM 31/25 A2992 RMK AO2 TSNO
KUTA 191635Z AUTO 17005KT 10SM 31/24 A2992 RMK AO2 TSNO
KUTA 191615Z AUTO 18005KT 10SM 31/24 A2993 RMK AO2 TSNO
KUTA 191555Z AUTO 14004KT 10SM 30/24 A2993 RMK AO2 TSNO
KUTA 191535Z AUTO 16006KT 10SM 30/25 A2993 RMK AO2 TSNO
KUTA 191515Z AUTO 18006KT 10SM 29/25 A2993 RMK AO2 TSNO
KUTA 191455Z AUTO 16006KT 10SM 28/24 A2994 RMK AO2 TSNO
KUTA 191435Z AUTO 14003KT 10SM 28/24 A2995 RMK AO2 TSNO
KUTA 191415Z AUTO 00000KT 10SM 27/24 A2995 RMK AO2 TSNO
KUTA 191355Z AUTO 00000KT 10SM 26/24 A2996 RMK AO2 TSNO
KUTA 191335Z AUTO 00000KT 10SM 26/23 A2996 RMK AO2 TSNO
KUTA 191315Z AUTO 00000KT 10SM 25/23 A2996 RMK AO2 TSNO
KUTA 191255Z AUTO 00000KT 10SM 25/23 A2996 RMK AO2 TSNO
KUTA 191235Z AUTO 00000KT 10SM 24/23 A2995 RMK AO2 TSNO
KUTA 191215Z AUTO 00000KT 5SM BR 23/23 A2995 RMK AO2 TSNO
KUTA 191155Z AUTO 00000KT 4SM BR 23/23 A2995 RMK AO2 TSNO
KUTA 191135Z AUTO 00000KT 2SM BR 22/22 A2994 RMK AO2 TSNO
KUTA 191115Z AUTO 00000KT 4SM BR 22/22 A2994 RMK AO2 TSNO
KUTA 191055Z AUTO 00000KT 5SM BR 22/22 A2994 RMK AO2 TSNO
KUTA 191035Z AUTO 00000KT 10SM 22/22 A2994 RMK AO2 TSNO
KUTA 191015Z AUTO 00000KT 10SM 23/22 A2993 RMK AO2 TSNO
KUTA 190955Z AUTO 00000KT 7SM 23/22 A2993 RMK AO2 TSNO
KUTA 190935Z AUTO 00000KT 10SM 23/22 A2993 RMK AO2 TSNO
KUTA 190915Z AUTO 00000KT 10SM 23/22 A2993 RMK AO2 TSNO
KUTA 190855Z AUTO 00000KT 10SM 23/22 A2992 RMK AO2 TSNO
KUTA 190835Z AUTO 00000KT 10SM 23/22 A2992 RMK AO2 TSNO
KUTA 190815Z AUTO 00000KT 10SM 23/22 A2992 RMK AO2 TSNO
KUTA 190755Z AUTO 06003KT 10SM 23/23 A2992 RMK AO2 TSNO
KUTA 190735Z AUTO 00000KT 10SM 24/23 A2993 RMK AO2 TSNO
KUTA 190715Z AUTO 00000KT 10SM 24/23 A2993 RMK AO2 TSNO
KUTA 190655Z AUTO 00000KT 10SM 24/23 A2993 RMK AO2 TSNO
KUTA 190635Z AUTO 00000KT 10SM 24/23 A2993 RMK AO2 TSNO
KUTA 190615Z AUTO 00000KT 10SM 24/23 A2994 RMK AO2 TSNO
KUTA 190555Z AUTO 00000KT 10SM 24/23 A2994 RMK AO2 TSNO
KUTA 190535Z AUTO 00000KT 10SM 24/23 A2994 RMK AO2 TSNO
KUTA 190515Z AUTO 00000KT 10SM 25/23 A2995 RMK AO2 TSNO
KUTA 190455Z AUTO 00000KT 10SM 25/23 A2995 RMK AO2 TSNO
KUTA 190435Z AUTO 08003KT 10SM 24/23 A2995 RMK AO2 TSNO
KUTA 190415Z AUTO 00000KT 10SM 24/23 A2996 RMK AO2 TSNO
KUTA 190355Z AUTO 00000KT 10SM 25/23 A2996 RMK AO2 TSNO
KUTA 190335Z AUTO 00000KT 10SM 25/23 A2996 RMK AO2 TSNO
KUTA 190315Z AUTO 00000KT 10SM 25/23 A2995 RMK AO2 TSNO
KUTA 190255Z AUTO 00000KT 10SM 25/23 A2995 RMK AO2 TSNO
KUTA 190235Z AUTO 00000KT 10SM 25/23 A2995 RMK AO2 TSNO
KUTA 190215Z AUTO 11003KT 10SM 24/23 A2994 RMK AO2 TSNO
KUTA 190155Z AUTO 00000KT 10SM 25/22 A2993 RMK AO2 TSNO
KUTA 190135Z AUTO 00000KT 10SM 25/22 A2993 RMK AO2 TSNO
KUTA 190115Z AUTO 07003KT 10SM 25/22 A2993 RMK AO2 TSNO
KUTA 190055Z AUTO 05004KT 10SM 25/22 A2994 RMK AO2 TSNO
KUTA 190035Z AUTO 05005KT 10SM 25/22 A2993 RMK AO2 TSNO
KUTA 190015Z AUTO 03003KT 10SM 26/22 A2992 RMK AO2 TSNO
KUTA 182355Z AUTO 05004KT 10SM 26/22 A2992 RMK AO2 TSNO
KUTA 182335Z AUTO 00000KT 10SM 26/21 A2991 RMK AO2 TSNO
KUTA 182315Z AUTO 00000KT 10SM 26/22 A2992 RMK AO2 TSNO
KUTA 182255Z AUTO 00000KT 10SM 26/21 A2993 RMK AO2 TSNO
KUTA 182235Z AUTO 00000KT 10SM 26/22 A2994 RMK AO2 TSNO
KUTA 182215Z AUTO 00000KT 10SM -RA 26/22 A2994 RMK AO2 TSNO
KUTA 182155Z AUTO 12003KT 10SM 26/22 A2995 RMK AO2 TSNO
KUTA 182135Z AUTO 08004KT 10SM 27/22 A2996 RMK AO2 TSNO
KUTA 182115Z AUTO 07007KT 10SM 27/22 A2996 RMK AO2 TSNO
KUTA 182055Z AUTO 06012G16KT 10SM 27/23 A2996 RMK AO2 TSNO
KUTA 182035Z AUTO 04008KT 10SM 27/22 A2995 RMK AO2 TSNO
KUTA 182015Z AUTO 03013G18KT 10SM -RA 27/22 A2995 RMK AO2 TSNO
KUTA 181955Z AUTO 30003KT 10SM -RA 29/25 A2995 RMK AO2 TSNO
KUTA 181935Z AUTO 25005KT 10SM -RA 29/25 A2994 RMK AO2 TSNO
KUTA 181915Z AUTO 25005KT 10SM 29/25 A2996 RMK AO2 TSNO
KUTA 181855Z AUTO 24004KT 10SM 29/25 A2997 RMK AO2 TSNO
KUTA 181835Z AUTO 25006KT 10SM 30/25 A2998 RMK AO2 TSNO
KUTA 181815Z AUTO 20005KT 10SM 30/23 A2997 RMK AO2 TSNO
KUTA 181755Z AUTO 20005KT 10SM 31/24 A2997 RMK AO2 TSNO
KUTA 181735Z AUTO 00000KT 10SM 31/25 A2998 RMK AO2 TSNO
KUTA 181715Z AUTO 17003KT 10SM 31/24 A2998 RMK AO2 TSNO
KUTA 181655Z AUTO 00000KT 10SM 30/24 A2999 RMK AO2 TSNO
KUTA 181635Z AUTO 00000KT 10SM 30/23 A3000 RMK AO2 TSNO
KUTA 181615Z AUTO 13004KT 10SM 30/24 A3000 RMK AO2 TSNO
KUTA 181555Z AUTO 11005KT 10SM 30/24 A3000 RMK AO2 TSNO
KUTA 181535Z AUTO 11005KT 10SM 30/23 A3000 RMK AO2 TSNO
KUTA 181515Z AUTO 00000KT 10SM 30/23 A3001 RMK AO2 TSNO